createdAt,value
2022-11-07T00:01:12.940Z,44.67
2022-11-07T00:03:40.331Z,45.06
2022-11-07T00:06:07.482Z,44.80
2022-11-07T00:08:34.717Z,44.61
2022-11-07T00:11:02.275Z,45.06
2022-11-07T00:13:29.502Z,44.92
2022-11-07T00:16:04.378Z,44.95
2022-11-07T00:18:31.780Z,44.66
2022-11-07T00:21:05.382Z,44.89
2022-11-07T00:23:32.812Z,44.54
2022-11-07T00:26:07.676Z,44.63
2022-11-07T00:28:35.589Z,44.67
2022-11-07T00:31:02.768Z,44.75
2022-11-07T00:33:29.895Z,44.66
2022-11-07T00:35:57.294Z,44.57
2022-11-07T00:38:24.443Z,44.75
2022-11-07T00:41:01.679Z,45.50
2022-11-07T00:43:29.318Z,45.44
2022-11-07T00:45:56.596Z,46.47
2022-11-07T00:48:23.926Z,48.05
2022-11-07T00:50:51.296Z,46.10
2022-11-07T00:53:18.521Z,46.21
2022-11-07T00:55:45.654Z,46.77
2022-11-07T00:58:14.425Z,46.92
2022-11-07T01:00:41.874Z,46.40
2022-11-07T01:03:27.808Z,46.26
2022-11-07T01:05:56.105Z,46.37
2022-11-07T01:08:23.240Z,46.27
2022-11-07T01:10:50.373Z,46.02
2022-11-07T01:13:17.812Z,45.93
2022-11-07T01:15:44.992Z,45.57
2022-11-07T01:18:12.267Z,45.71
2022-11-07T01:20:40.949Z,45.57
2022-11-07T01:23:08.160Z,45.67
2022-11-07T01:25:38.500Z,45.03
2022-11-07T01:28:06.561Z,45.19
2022-11-07T01:30:33.682Z,47.31
2022-11-07T01:33:01.243Z,46.45
2022-11-07T01:35:28.624Z,46.08
2022-11-07T01:37:55.756Z,45.95
2022-11-07T01:40:22.860Z,45.58
2022-11-07T01:42:50.244Z,45.83
2022-11-07T01:45:24.522Z,45.67
2022-11-07T01:47:51.989Z,45.38
2022-11-07T01:50:19.117Z,45.12
2022-11-07T01:52:46.835Z,45.13
2022-11-07T01:55:21.689Z,45.11
2022-11-07T01:57:54.475Z,45.44
2022-11-07T02:00:22.181Z,45.34
2022-11-07T02:02:51.379Z,45.05
2022-11-07T02:05:21.171Z,45.20
2022-11-07T02:07:48.294Z,45.30
2022-11-07T02:10:15.691Z,45.19
2022-11-07T02:12:42.842Z,45.28
2022-11-07T02:15:10.295Z,45.22
2022-11-07T02:17:37.716Z,45.11
2022-11-07T02:20:05.148Z,44.97
2022-11-07T02:22:40.352Z,45.05
2022-11-07T02:25:09.084Z,45.36
2022-11-07T02:27:36.236Z,45.05
2022-11-07T02:30:08.004Z,45.17
2022-11-07T02:32:35.428Z,44.87
2022-11-07T02:35:03.759Z,45.04
2022-11-07T02:37:34.779Z,45.42
2022-11-07T02:40:04.094Z,44.95
2022-11-07T02:42:43.376Z,44.95
2022-11-07T02:45:14.567Z,45.39
2022-11-07T02:47:41.946Z,45.33
2022-11-07T02:50:10.421Z,45.09
2022-11-07T02:52:37.793Z,45.20
2022-11-07T02:55:05.736Z,45.26
2022-11-07T02:57:51.681Z,45.30
2022-11-07T03:00:19.063Z,44.98
2022-11-07T03:02:49.169Z,45.50
2022-11-07T03:05:16.930Z,46.09
2022-11-07T03:07:44.683Z,46.62
2022-11-07T03:10:11.970Z,45.73
2022-11-07T03:12:39.094Z,45.96
2022-11-07T03:15:07.111Z,45.55
2022-11-07T03:17:34.450Z,45.38
2022-11-07T03:20:01.729Z,45.76
2022-11-07T03:22:29.144Z,45.46
2022-11-07T03:24:56.263Z,45.37
2022-11-07T03:27:23.431Z,45.80
2022-11-07T03:29:50.810Z,45.81
2022-11-07T03:32:17.946Z,45.90
2022-11-07T03:34:45.109Z,45.70
2022-11-07T03:37:12.487Z,45.21
2022-11-07T03:39:39.599Z,45.26
2022-11-07T03:42:06.704Z,45.35
2022-11-07T03:44:34.105Z,45.48
2022-11-07T03:47:01.238Z,45.34
2022-11-07T03:49:28.370Z,45.22
2022-11-07T03:51:55.793Z,45.98
2022-11-07T03:54:22.908Z,45.72
2022-11-07T03:56:50.017Z,45.28
2022-11-07T03:59:17.404Z,45.19
2022-11-07T04:01:45.582Z,45.11
2022-11-07T04:04:13.278Z,45.31
2022-11-07T04:06:40.464Z,45.45
2022-11-07T04:09:07.976Z,45.43
2022-11-07T04:11:54.222Z,45.50
2022-11-07T04:14:40.007Z,45.00
2022-11-07T04:17:19.817Z,44.90
2022-11-07T04:19:47.429Z,45.28
2022-11-07T04:22:14.878Z,44.94
2022-11-07T04:24:45.777Z,45.37
2022-11-07T04:27:32.853Z,44.93
2022-11-07T04:30:19.209Z,44.77
2022-11-07T04:32:47.269Z,44.56
2022-11-07T04:35:14.954Z,44.26
2022-11-07T04:37:42.148Z,44.21
2022-11-07T04:40:10.133Z,44.13
2022-11-07T04:42:37.535Z,44.30
2022-11-07T04:45:04.847Z,44.45
2022-11-07T04:47:34.220Z,44.42
2022-11-07T04:50:04.561Z,44.35
2022-11-07T04:52:31.666Z,44.34
2022-11-07T04:54:58.804Z,44.21
2022-11-07T04:57:26.192Z,44.23
2022-11-07T04:59:53.378Z,44.41
2022-11-07T05:02:20.619Z,44.71
2022-11-07T05:04:48.104Z,44.39
2022-11-07T05:07:15.232Z,45.52
2022-11-07T05:09:42.374Z,45.75
2022-11-07T05:12:09.753Z,44.94
2022-11-07T05:14:36.865Z,44.89
2022-11-07T05:17:04.042Z,44.85
2022-11-07T05:19:31.436Z,45.00
2022-11-07T05:22:17.099Z,44.89
2022-11-07T05:24:44.500Z,44.65
2022-11-07T05:27:18.639Z,44.92
2022-11-07T05:29:46.369Z,44.57
2022-11-07T05:32:13.645Z,44.37
2022-11-07T05:34:40.780Z,44.30
2022-11-07T05:37:08.728Z,44.55
2022-11-07T05:39:36.062Z,44.47
2022-11-07T05:42:03.497Z,44.97
2022-11-07T05:44:30.974Z,45.01
2022-11-07T05:46:58.469Z,44.90
2022-11-07T05:49:25.704Z,46.57
2022-11-07T05:51:53.359Z,47.94
2022-11-07T05:54:20.503Z,46.88
2022-11-07T05:56:47.686Z,46.12
2022-11-07T05:59:15.202Z,45.52
2022-11-07T06:01:42.457Z,46.62
2022-11-07T06:04:09.880Z,45.81
2022-11-07T06:06:37.029Z,45.72
2022-11-07T06:09:04.172Z,45.33
2022-11-07T06:11:31.989Z,46.52
2022-11-07T06:13:59.187Z,46.10
2022-11-07T06:16:26.926Z,45.57
2022-11-07T06:18:54.308Z,45.10
2022-11-07T06:21:21.483Z,45.99
2022-11-07T06:23:48.612Z,45.86
2022-11-07T06:26:16.054Z,45.56
2022-11-07T06:28:43.282Z,47.12
2022-11-07T06:31:10.509Z,46.55
2022-11-07T06:33:37.899Z,46.78
2022-11-07T06:36:09.219Z,46.07
2022-11-07T06:38:36.522Z,46.69
2022-11-07T06:41:04.718Z,46.71
2022-11-07T06:43:33.812Z,46.02
2022-11-07T06:46:05.055Z,46.14
2022-11-07T06:48:32.720Z,45.82
2022-11-07T06:51:00.324Z,45.72
2022-11-07T06:53:27.836Z,45.28
2022-11-07T06:55:55.208Z,46.55
2022-11-07T06:58:22.557Z,47.91
2022-11-07T07:00:49.736Z,47.50
2022-11-07T07:03:17.935Z,48.93
2022-11-07T07:05:45.493Z,46.35
2022-11-07T07:08:13.109Z,47.63
2022-11-07T07:10:41.169Z,46.66
2022-11-07T07:13:08.285Z,47.25
2022-11-07T07:15:49.865Z,46.79
2022-11-07T07:18:19.406Z,48.61
2022-11-07T07:20:47.189Z,47.32
2022-11-07T07:23:14.294Z,46.92
2022-11-07T07:25:41.698Z,47.70
2022-11-07T07:28:08.806Z,47.80
2022-11-07T07:30:35.913Z,46.67
2022-11-07T07:33:03.290Z,48.13
2022-11-07T07:35:30.410Z,48.97
2022-11-07T07:37:57.714Z,49.19
2022-11-07T07:40:25.202Z,49.20
2022-11-07T07:42:52.344Z,49.19
2022-11-07T07:45:19.635Z,47.84
2022-11-07T07:47:47.057Z,49.77
2022-11-07T07:50:15.063Z,49.21
2022-11-07T07:52:42.178Z,50.81
2022-11-07T07:55:10.219Z,54.25
2022-11-07T07:57:41.210Z,51.96
2022-11-07T08:00:08.713Z,51.83
2022-11-07T08:02:39.311Z,50.98
2022-11-07T08:05:06.908Z,50.68
2022-11-07T08:07:34.075Z,50.05
2022-11-07T08:10:27.312Z,50.35
2022-11-07T08:12:50.747Z,50.97
2022-11-07T08:15:18.355Z,51.65
2022-11-07T08:17:45.609Z,50.31
2022-11-07T08:20:13.923Z,49.34
2022-11-07T08:22:41.034Z,49.48
2022-11-07T08:25:08.892Z,49.69
2022-11-07T08:27:36.478Z,50.59
2022-11-07T08:30:04.604Z,49.25
2022-11-07T08:32:31.753Z,50.41
2022-11-07T08:34:59.124Z,49.46
2022-11-07T08:37:26.252Z,49.04
2022-11-07T08:39:53.376Z,50.07
2022-11-07T08:42:20.741Z,50.44
2022-11-07T08:44:47.878Z,53.23
2022-11-07T08:47:14.995Z,51.80
2022-11-07T08:49:42.384Z,53.56
2022-11-07T08:52:09.512Z,50.26
2022-11-07T08:54:36.627Z,50.07
2022-11-07T08:57:04.033Z,49.55
2022-11-07T08:59:31.134Z,51.24
2022-11-07T09:02:44.681Z,51.21
2022-11-07T09:04:46.034Z,50.65
2022-11-07T09:07:13.331Z,49.05
2022-11-07T09:09:40.469Z,48.49
2022-11-07T09:12:07.943Z,48.79
2022-11-07T09:14:35.070Z,48.81
2022-11-07T09:17:02.201Z,48.25
2022-11-07T09:19:29.578Z,48.31
2022-11-07T09:21:57.206Z,50.89
2022-11-07T09:24:24.319Z,51.39
2022-11-07T09:26:51.705Z,48.50
2022-11-07T09:29:18.881Z,50.69
2022-11-07T09:31:45.992Z,50.16
2022-11-07T09:34:13.429Z,50.52
2022-11-07T09:36:40.527Z,51.22
2022-11-07T09:39:07.668Z,50.51
2022-11-07T09:41:38.032Z,50.14
2022-11-07T09:44:05.194Z,49.99
2022-11-07T09:46:34.133Z,51.32
2022-11-07T09:49:20.504Z,50.71
2022-11-07T09:51:48.192Z,51.80
2022-11-07T09:54:17.086Z,51.46
2022-11-07T09:56:44.257Z,50.18
2022-11-07T09:59:32.089Z,50.16
2022-11-07T10:01:59.507Z,50.71
2022-11-07T10:04:27.424Z,48.97
2022-11-07T10:06:56.777Z,47.47
2022-11-07T10:09:42.334Z,47.90
2022-11-07T10:12:31.137Z,48.57
2022-11-07T10:15:15.144Z,48.59
2022-11-07T10:17:46.583Z,49.61
2022-11-07T10:20:23.486Z,48.11
2022-11-07T10:22:56.339Z,48.42
2022-11-07T10:25:25.210Z,47.78
2022-11-07T10:28:08.717Z,48.70
2022-11-07T10:30:35.870Z,47.67
2022-11-07T10:33:09.357Z,47.18
2022-11-07T10:35:37.697Z,47.63
2022-11-07T10:38:37.565Z,48.69
2022-11-07T10:41:07.648Z,48.65
2022-11-07T10:43:36.511Z,50.35
2022-11-07T10:46:04.886Z,47.42
2022-11-07T10:48:33.213Z,48.01
2022-11-07T10:51:00.642Z,47.42
2022-11-07T10:53:29.100Z,47.69
2022-11-07T10:55:56.443Z,46.22
2022-11-07T10:58:27.472Z,46.11
2022-11-07T11:01:04.011Z,46.04
2022-11-07T11:03:43.626Z,46.67
2022-11-07T11:06:31.532Z,47.14
2022-11-07T11:08:59.330Z,47.48
2022-11-07T11:11:31.251Z,46.95
2022-11-07T11:14:11.122Z,46.65
2022-11-07T11:16:38.947Z,47.84
2022-11-07T11:19:06.868Z,47.45
2022-11-07T11:21:43.616Z,46.17
2022-11-07T11:24:12.616Z,45.85
2022-11-07T11:26:40.500Z,46.59
2022-11-07T11:29:12.116Z,47.06
2022-11-07T11:31:40.897Z,47.65
2022-11-07T11:34:13.034Z,46.32
2022-11-07T11:36:41.511Z,46.40
2022-11-07T11:39:16.490Z,47.46
2022-11-07T11:41:57.076Z,49.56
2022-11-07T11:44:26.585Z,49.91
2022-11-07T11:46:56.011Z,49.53
2022-11-07T11:49:25.195Z,49.89
2022-11-07T11:51:52.267Z,49.12
2022-11-07T11:54:19.655Z,47.77
2022-11-07T11:56:53.579Z,48.23
2022-11-07T11:59:23.944Z,49.42
2022-11-07T12:02:09.172Z,49.05
2022-11-07T12:04:42.454Z,48.42
2022-11-07T12:07:32.801Z,47.87
2022-11-07T12:10:07.731Z,48.76
2022-11-07T12:12:46.532Z,49.90
2022-11-07T12:15:18.141Z,48.86
2022-11-07T12:17:48.374Z,49.88
2022-11-07T12:20:18.704Z,50.42
2022-11-07T12:22:52.785Z,50.51
2022-11-07T12:25:25.041Z,49.32
2022-11-07T12:27:58.605Z,49.89
2022-11-07T12:30:41.360Z,48.96
2022-11-07T12:33:11.284Z,49.02
2022-11-07T12:35:45.837Z,49.34
2022-11-07T12:38:18.973Z,47.44
2022-11-07T12:40:49.267Z,48.34
2022-11-07T12:43:36.591Z,49.48
2022-11-07T12:46:23.033Z,48.67
2022-11-07T12:48:58.805Z,49.88
2022-11-07T12:51:45.089Z,48.52
2022-11-07T12:54:30.405Z,48.57
2022-11-07T12:56:58.065Z,48.66
2022-11-07T12:59:28.578Z,48.26
2022-11-07T13:01:55.790Z,49.05
2022-11-07T13:04:34.857Z,47.41
2022-11-07T13:07:05.002Z,49.51
2022-11-07T13:09:51.278Z,51.51
2022-11-07T13:12:23.909Z,48.26
2022-11-07T13:14:51.413Z,48.71
2022-11-07T13:17:19.953Z,47.98
2022-11-07T13:20:00.472Z,48.50
2022-11-07T13:22:35.654Z,47.30
2022-11-07T13:25:07.545Z,47.48
2022-11-07T13:27:37.880Z,47.67
2022-11-07T13:30:14.582Z,47.19
2022-11-07T13:32:42.996Z,46.15
2022-11-07T13:35:21.282Z,46.83
2022-11-07T13:37:51.019Z,48.98
2022-11-07T13:40:31.530Z,47.72
2022-11-07T13:42:59.765Z,45.68
2022-11-07T13:45:27.973Z,46.79
2022-11-07T13:47:56.108Z,46.13
2022-11-07T13:50:24.129Z,45.55
2022-11-07T13:52:51.181Z,45.10
2022-11-07T13:55:19.150Z,43.83
2022-11-07T13:57:53.965Z,45.43
2022-11-07T14:00:21.467Z,46.13
2022-11-07T14:02:53.273Z,45.69
2022-11-07T14:05:34.728Z,45.25
2022-11-07T14:08:02.125Z,44.57
2022-11-07T14:10:34.241Z,46.00
2022-11-07T14:13:01.578Z,45.20
2022-11-07T14:15:28.709Z,45.06
2022-11-07T14:17:55.841Z,44.92
2022-11-07T14:20:23.223Z,44.87
2022-11-07T14:22:51.780Z,44.25
2022-11-07T14:25:20.994Z,45.07
2022-11-07T14:27:48.393Z,44.76
2022-11-07T14:30:16.291Z,45.93
2022-11-07T14:32:47.692Z,44.95
2022-11-07T14:35:15.864Z,44.62
2022-11-07T14:37:42.976Z,44.27
2022-11-07T14:40:10.329Z,44.23
2022-11-07T14:42:38.219Z,44.46
2022-11-07T14:45:05.643Z,44.06
2022-11-07T14:47:33.300Z,43.35
2022-11-07T14:50:01.848Z,43.13
2022-11-07T14:52:35.139Z,42.76
2022-11-07T14:55:07.233Z,43.93
2022-11-07T14:57:37.996Z,42.98
2022-11-07T15:00:19.552Z,42.57
2022-11-07T15:02:49.285Z,42.83
2022-11-07T15:05:23.783Z,42.54
2022-11-07T15:07:51.904Z,42.73
2022-11-07T15:10:30.727Z,42.96
2022-11-07T15:13:02.060Z,42.79
2022-11-07T15:15:30.814Z,43.08
2022-11-07T15:17:58.863Z,42.68
2022-11-07T15:20:33.414Z,42.86
2022-11-07T15:23:23.481Z,42.45
2022-11-07T15:25:53.123Z,42.38
2022-11-07T15:28:30.419Z,42.32
2022-11-07T15:31:00.814Z,42.35
2022-11-07T15:33:32.221Z,42.66
2022-11-07T15:36:00.076Z,42.80
2022-11-07T15:38:28.250Z,42.97
2022-11-07T15:40:55.491Z,43.05
2022-11-07T15:43:22.736Z,42.80
2022-11-07T15:45:50.728Z,42.54
2022-11-07T15:48:19.187Z,42.58
2022-11-07T15:50:48.950Z,42.68
2022-11-07T15:53:23.276Z,42.97
2022-11-07T15:55:54.308Z,42.63
2022-11-07T15:58:23.109Z,42.52
2022-11-07T16:00:50.556Z,42.46
2022-11-07T16:03:18.548Z,42.33
2022-11-07T16:05:46.086Z,42.91
2022-11-07T16:08:14.319Z,42.78
2022-11-07T16:10:52.346Z,42.97
2022-11-07T16:13:19.852Z,43.15
2022-11-07T16:15:48.263Z,42.92
2022-11-07T16:18:16.367Z,42.73
2022-11-07T16:20:43.947Z,42.94
2022-11-07T16:23:11.390Z,42.36
2022-11-07T16:25:42.339Z,42.83
2022-11-07T16:28:21.774Z,43.03
2022-11-07T16:30:49.301Z,43.07
2022-11-07T16:33:16.648Z,42.96
2022-11-07T16:35:43.878Z,42.86
2022-11-07T16:38:12.369Z,42.71
2022-11-07T16:40:39.654Z,42.89
2022-11-07T16:43:25.388Z,43.33
2022-11-07T16:45:54.175Z,43.01
2022-11-07T16:48:26.274Z,42.80
2022-11-07T16:50:54.068Z,42.85
2022-11-07T16:53:21.400Z,42.85
2022-11-07T16:55:53.524Z,42.87
2022-11-07T16:58:24.299Z,42.77
2022-11-07T17:00:52.334Z,42.96
2022-11-07T17:03:19.628Z,42.78
2022-11-07T17:05:47.166Z,42.77
2022-11-07T17:08:43.782Z,42.73
2022-11-07T17:11:15.848Z,43.22
2022-11-07T17:13:43.760Z,43.32
2022-11-07T17:16:21.608Z,43.31
2022-11-07T17:18:49.854Z,43.70
2022-11-07T17:21:46.767Z,44.38
2022-11-07T17:24:14.467Z,44.30
2022-11-07T17:26:42.292Z,44.08
2022-11-07T17:29:13.637Z,43.41
2022-11-07T17:31:41.729Z,43.36
2022-11-07T17:34:09.796Z,43.08
2022-11-07T17:36:38.486Z,42.83
2022-11-07T17:39:08.276Z,42.83
2022-11-07T17:41:36.271Z,42.53
2022-11-07T17:44:04.274Z,42.06
2022-11-07T17:46:33.049Z,41.92
2022-11-07T17:49:01.832Z,41.75
2022-11-07T17:51:29.299Z,41.58
2022-11-07T17:53:57.343Z,41.63
2022-11-07T17:56:25.732Z,41.51
2022-11-07T17:58:53.808Z,41.52
2022-11-07T18:01:22.313Z,41.82
2022-11-07T18:03:52.224Z,41.74
2022-11-07T18:06:23.621Z,41.59
2022-11-07T18:08:52.814Z,41.46
2022-11-07T18:11:21.205Z,41.47
2022-11-07T18:13:52.245Z,41.60
2022-11-07T18:16:21.539Z,41.44
2022-11-07T18:18:49.326Z,41.36
2022-11-07T18:21:16.948Z,41.50
2022-11-07T18:23:45.311Z,41.58
2022-11-07T18:26:17.030Z,41.53
2022-11-07T18:28:45.293Z,41.40
2022-11-07T18:31:14.021Z,41.49
2022-11-07T18:33:44.878Z,41.91
2022-11-07T18:36:17.593Z,41.62
2022-11-07T18:38:45.434Z,41.74
2022-11-07T18:41:19.161Z,41.48
2022-11-07T18:43:47.103Z,41.51
2022-11-07T18:46:16.121Z,41.76
2022-11-07T18:48:43.307Z,41.80
2022-11-07T18:51:21.687Z,41.68
2022-11-07T18:53:50.002Z,41.58
2022-11-07T18:56:17.393Z,41.29
2022-11-07T18:58:45.524Z,41.21
2022-11-07T19:01:14.294Z,41.30
2022-11-07T19:03:42.295Z,41.51
2022-11-07T19:06:14.284Z,41.83
2022-11-07T19:08:42.752Z,41.80
2022-11-07T19:11:12.141Z,41.71
2022-11-07T19:13:40.765Z,41.98
2022-11-07T19:16:09.246Z,42.37
2022-11-07T19:18:36.821Z,41.98
2022-11-07T19:21:05.547Z,41.74
2022-11-07T19:23:35.311Z,41.98
2022-11-07T19:26:03.486Z,41.93
2022-11-07T19:28:31.211Z,41.76
2022-11-07T19:31:02.475Z,41.66
2022-11-07T19:33:30.467Z,41.58
2022-11-07T19:35:59.717Z,41.66
2022-11-07T19:38:29.032Z,41.76
2022-11-07T19:40:56.421Z,42.23
2022-11-07T19:43:24.410Z,42.50
2022-11-07T19:45:55.564Z,42.61
2022-11-07T19:48:24.038Z,42.48
2022-11-07T19:50:52.021Z,42.41
2022-11-07T19:53:21.911Z,42.21
2022-11-07T19:55:49.633Z,42.20
2022-11-07T19:58:17.628Z,42.21
2022-11-07T20:00:46.453Z,42.20
2022-11-07T20:03:14.952Z,42.08
2022-11-07T20:05:43.026Z,42.20
2022-11-07T20:08:14.200Z,42.34
2022-11-07T20:10:45.795Z,42.77
2022-11-07T20:13:14.087Z,42.78
2022-11-07T20:15:42.354Z,42.43
2022-11-07T20:18:13.096Z,42.45
2022-11-07T20:20:41.167Z,42.27
2022-11-07T20:23:10.405Z,42.23
2022-11-07T20:25:42.792Z,42.33
2022-11-07T20:28:11.013Z,42.20
2022-11-07T20:30:40.972Z,42.21
2022-11-07T20:33:08.209Z,42.13
2022-11-07T20:35:36.148Z,41.93
2022-11-07T20:38:06.070Z,41.84
2022-11-07T20:40:33.737Z,41.78
2022-11-07T20:43:02.193Z,41.62
2022-11-07T20:45:30.026Z,41.75
2022-11-07T20:48:00.632Z,41.71
2022-11-07T20:50:40.477Z,41.88
2022-11-07T20:53:07.779Z,41.94
2022-11-07T20:55:39.194Z,42.01
2022-11-07T20:58:06.833Z,41.82
2022-11-07T21:00:34.577Z,41.95
2022-11-07T21:03:03.241Z,41.95
2022-11-07T21:05:30.736Z,42.10
2022-11-07T21:07:58.176Z,42.03
2022-11-07T21:10:26.810Z,42.15
2022-11-07T21:12:54.499Z,42.62
2022-11-07T21:15:21.854Z,42.96
2022-11-07T21:17:49.252Z,43.29
2022-11-07T21:20:16.872Z,44.20
2022-11-07T21:22:48.281Z,44.75
2022-11-07T21:25:17.208Z,44.84
2022-11-07T21:27:45.016Z,45.86
2022-11-07T21:30:13.305Z,45.43
2022-11-07T21:32:41.222Z,45.50
2022-11-07T21:35:09.280Z,44.93
2022-11-07T21:37:42.458Z,44.74
2022-11-07T21:40:10.795Z,44.12
2022-11-07T21:42:38.278Z,43.71
2022-11-07T21:45:05.608Z,43.27
2022-11-07T21:47:33.143Z,42.98
2022-11-07T21:50:00.891Z,43.07
2022-11-07T21:52:31.072Z,42.97
2022-11-07T21:54:58.492Z,42.73
2022-11-07T21:57:26.224Z,42.84
2022-11-07T21:59:53.444Z,42.57
2022-11-07T22:02:20.916Z,43.11
2022-11-07T22:04:48.315Z,42.85
2022-11-07T22:07:15.486Z,42.82
2022-11-07T22:09:43.080Z,42.77
2022-11-07T22:12:10.914Z,42.47
2022-11-07T22:14:41.142Z,42.90
2022-11-07T22:17:12.044Z,43.19
2022-11-07T22:19:39.859Z,43.20
2022-11-07T22:22:06.990Z,43.54
2022-11-07T22:24:34.153Z,43.95
2022-11-07T22:27:01.559Z,44.45
2022-11-07T22:29:28.679Z,44.41
2022-11-07T22:31:58.346Z,45.04
2022-11-07T22:34:25.740Z,45.16
2022-11-07T22:36:55.524Z,44.75
2022-11-07T22:39:22.662Z,44.29
2022-11-07T22:41:50.030Z,44.33
2022-11-07T22:44:17.133Z,44.19
2022-11-07T22:46:44.271Z,44.28
2022-11-07T22:49:11.667Z,44.41
2022-11-07T22:51:38.770Z,44.32
2022-11-07T22:54:07.043Z,44.42
2022-11-07T22:56:35.245Z,44.42
2022-11-07T22:59:02.561Z,44.13
2022-11-07T23:01:30.657Z,44.00
2022-11-07T23:03:58.091Z,44.00
2022-11-07T23:06:25.431Z,43.48
2022-11-07T23:08:52.867Z,43.49
2022-11-07T23:14:08.871Z,43.26
2022-11-07T23:16:37.109Z,43.32
2022-11-07T23:19:05.590Z,42.90
2022-11-07T23:21:32.725Z,42.82
2022-11-07T23:24:00.132Z,42.78
2022-11-07T23:26:33.682Z,42.63
2022-11-07T23:29:10.474Z,42.92
2022-11-07T23:31:45.595Z,42.59
2022-11-07T23:34:13.538Z,42.44
2022-11-07T23:36:44.282Z,42.40
2022-11-07T23:39:16.654Z,42.34
2022-11-07T23:41:45.428Z,42.20
2022-11-07T23:44:13.660Z,42.89
2022-11-07T23:46:59.810Z,42.57
2022-11-07T23:49:46.572Z,42.60
2022-11-07T23:52:14.629Z,42.50
2022-11-07T23:55:01.285Z,42.37
2022-11-07T23:57:29.201Z,42.32
